sensor_id;sensor_type;location;lat;lon;timestamp;P1;durP1;ratioP1;P2;durP2;ratioP2
24787;SDS011;12883;52.662;5.196;2023-11-21T00:00:48;13.73;;;13.63;;
24787;SDS011;12883;52.662;5.196;2023-11-21T00:03:13;13.60;;;13.50;;
24787;SDS011;12883;52.662;5.196;2023-11-21T00:05:40;13.60;;;13.50;;
24787;SDS011;12883;52.662;5.196;2023-11-21T00:08:06;13.80;;;13.70;;
24787;SDS011;12883;52.662;5.196;2023-11-21T00:10:32;13.37;;;13.27;;
24787;SDS011;12883;52.662;5.196;2023-11-21T00:12:57;13.37;;;13.27;;
24787;SDS011;12883;52.662;5.196;2023-11-21T00:15:23;14.00;;;13.90;;
24787;SDS011;12883;52.662;5.196;2023-11-21T00:17:48;13.60;;;13.50;;
24787;SDS011;12883;52.662;5.196;2023-11-21T00:20:13;13.67;;;13.57;;
24787;SDS011;12883;52.662;5.196;2023-11-21T00:22:39;13.70;;;13.60;;
24787;SDS011;12883;52.662;5.196;2023-11-21T00:25:05;14.30;;;14.20;;
24787;SDS011;12883;52.662;5.196;2023-11-21T00:27:33;13.83;;;13.73;;
24787;SDS011;12883;52.662;5.196;2023-11-21T00:30:00;13.90;;;13.80;;
24787;SDS011;12883;52.662;5.196;2023-11-21T00:32:25;12.60;;;12.50;;
24787;SDS011;12883;52.662;5.196;2023-11-21T00:34:50;13.87;;;13.77;;
24787;SDS011;12883;52.662;5.196;2023-11-21T00:37:16;14.60;;;14.47;;
24787;SDS011;12883;52.662;5.196;2023-11-21T00:39:41;13.43;;;13.33;;
24787;SDS011;12883;52.662;5.196;2023-11-21T00:42:06;13.70;;;13.60;;
24787;SDS011;12883;52.662;5.196;2023-11-21T00:44:33;14.87;;;14.77;;
24787;SDS011;12883;52.662;5.196;2023-11-21T00:46:59;13.57;;;13.47;;
24787;SDS011;12883;52.662;5.196;2023-11-21T00:49:24;13.17;;;13.07;;
24787;SDS011;12883;52.662;5.196;2023-11-21T00:51:50;13.40;;;13.30;;
24787;SDS011;12883;52.662;5.196;2023-11-21T00:54:15;12.60;;;12.50;;
24787;SDS011;12883;52.662;5.196;2023-11-21T00:56:42;13.23;;;13.13;;
24787;SDS011;12883;52.662;5.196;2023-11-21T00:59:07;13.20;;;13.10;;
24787;SDS011;12883;52.662;5.196;2023-11-21T01:01:33;14.37;;;14.27;;
24787;SDS011;12883;52.662;5.196;2023-11-21T01:03:58;12.83;;;12.73;;
24787;SDS011;12883;52.662;5.196;2023-11-21T01:06:23;13.80;;;13.70;;
24787;SDS011;12883;52.662;5.196;2023-11-21T01:08:49;13.93;;;13.80;;
24787;SDS011;12883;52.662;5.196;2023-11-21T01:11:14;13.10;;;13.00;;
24787;SDS011;12883;52.662;5.196;2023-11-21T01:13:40;13.60;;;13.50;;
24787;SDS011;12883;52.662;5.196;2023-11-21T01:16:06;15.40;;;15.20;;
24787;SDS011;12883;52.662;5.196;2023-11-21T01:18:32;14.97;;;14.87;;
24787;SDS011;12883;52.662;5.196;2023-11-21T01:20:58;13.73;;;13.63;;
24787;SDS011;12883;52.662;5.196;2023-11-21T01:23:25;15.17;;;15.07;;
24787;SDS011;12883;52.662;5.196;2023-11-21T01:25:51;14.80;;;14.70;;
24787;SDS011;12883;52.662;5.196;2023-11-21T01:28:17;14.70;;;14.60;;
24787;SDS011;12883;52.662;5.196;2023-11-21T01:30:42;16.17;;;16.07;;
24787;SDS011;12883;52.662;5.196;2023-11-21T01:33:09;14.47;;;14.37;;
24787;SDS011;12883;52.662;5.196;2023-11-21T01:35:34;14.53;;;14.43;;
24787;SDS011;12883;52.662;5.196;2023-11-21T01:38:00;14.57;;;14.47;;
24787;SDS011;12883;52.662;5.196;2023-11-21T01:40:26;14.83;;;14.73;;
24787;SDS011;12883;52.662;5.196;2023-11-21T01:42:52;15.30;;;15.20;;
24787;SDS011;12883;52.662;5.196;2023-11-21T01:45:18;14.73;;;14.63;;
24787;SDS011;12883;52.662;5.196;2023-11-21T01:47:44;14.37;;;14.27;;
24787;SDS011;12883;52.662;5.196;2023-11-21T01:50:13;13.73;;;13.63;;
24787;SDS011;12883;52.662;5.196;2023-11-21T01:52:41;13.30;;;13.20;;
24787;SDS011;12883;52.662;5.196;2023-11-21T01:55:08;14.10;;;14.00;;
24787;SDS011;12883;52.662;5.196;2023-11-21T01:57:35;13.93;;;13.83;;
24787;SDS011;12883;52.662;5.196;2023-11-21T02:00:02;13.50;;;13.40;;
24787;SDS011;12883;52.662;5.196;2023-11-21T02:02:43;12.73;;;12.63;;
24787;SDS011;12883;52.662;5.196;2023-11-21T02:05:19;13.53;;;13.43;;
24787;SDS011;12883;52.662;5.196;2023-11-21T02:07:46;13.20;;;13.10;;
24787;SDS011;12883;52.662;5.196;2023-11-21T02:10:17;13.30;;;13.20;;
24787;SDS011;12883;52.662;5.196;2023-11-21T02:12:47;13.37;;;13.27;;
24787;SDS011;12883;52.662;5.196;2023-11-21T02:15:15;12.43;;;12.33;;
24787;SDS011;12883;52.662;5.196;2023-11-21T02:17:45;13.90;;;13.80;;
24787;SDS011;12883;52.662;5.196;2023-11-21T02:20:11;12.30;;;12.20;;
24787;SDS011;12883;52.662;5.196;2023-11-21T02:22:40;12.63;;;12.53;;
24787;SDS011;12883;52.662;5.196;2023-11-21T02:25:07;10.87;;;10.77;;
24787;SDS011;12883;52.662;5.196;2023-11-21T02:27:32;12.70;;;12.60;;
24787;SDS011;12883;52.662;5.196;2023-11-21T02:29:58;11.60;;;11.50;;
24787;SDS011;12883;52.662;5.196;2023-11-21T02:32:24;11.97;;;11.87;;
24787;SDS011;12883;52.662;5.196;2023-11-21T02:34:51;12.63;;;12.53;;
24787;SDS011;12883;52.662;5.196;2023-11-21T02:37:16;11.90;;;11.80;;
24787;SDS011;12883;52.662;5.196;2023-11-21T02:39:42;12.60;;;12.50;;
24787;SDS011;12883;52.662;5.196;2023-11-21T02:42:07;11.67;;;11.57;;
24787;SDS011;12883;52.662;5.196;2023-11-21T02:44:33;11.20;;;11.10;;
24787;SDS011;12883;52.662;5.196;2023-11-21T02:46:59;11.67;;;11.57;;
24787;SDS011;12883;52.662;5.196;2023-11-21T02:49:25;11.23;;;11.23;;
24787;SDS011;12883;52.662;5.196;2023-11-21T02:51:53;12.13;;;12.03;;
24787;SDS011;12883;52.662;5.196;2023-11-21T02:54:19;11.80;;;11.70;;
24787;SDS011;12883;52.662;5.196;2023-11-21T02:56:46;11.37;;;11.27;;
24787;SDS011;12883;52.662;5.196;2023-11-21T02:59:12;12.27;;;12.17;;
24787;SDS011;12883;52.662;5.196;2023-11-21T03:01:37;12.33;;;12.23;;
24787;SDS011;12883;52.662;5.196;2023-11-21T03:04:03;12.00;;;11.90;;
24787;SDS011;12883;52.662;5.196;2023-11-21T03:06:28;12.23;;;12.13;;
24787;SDS011;12883;52.662;5.196;2023-11-21T03:08:54;12.17;;;12.07;;
24787;SDS011;12883;52.662;5.196;2023-11-21T03:11:19;12.30;;;12.20;;
24787;SDS011;12883;52.662;5.196;2023-11-21T03:13:44;12.10;;;12.00;;
24787;SDS011;12883;52.662;5.196;2023-11-21T03:16:10;13.60;;;13.50;;
24787;SDS011;12883;52.662;5.196;2023-11-21T03:18:36;12.17;;;12.07;;
24787;SDS011;12883;52.662;5.196;2023-11-21T03:21:03;13.03;;;12.93;;
24787;SDS011;12883;52.662;5.196;2023-11-21T03:23:29;11.93;;;11.83;;
24787;SDS011;12883;52.662;5.196;2023-11-21T03:25:54;12.30;;;12.20;;
24787;SDS011;12883;52.662;5.196;2023-11-21T03:28:20;11.20;;;11.17;;
24787;SDS011;12883;52.662;5.196;2023-11-21T03:30:45;11.87;;;11.77;;
24787;SDS011;12883;52.662;5.196;2023-11-21T03:33:10;12.27;;;12.17;;
24787;SDS011;12883;52.662;5.196;2023-11-21T03:35:36;11.03;;;11.03;;
24787;SDS011;12883;52.662;5.196;2023-11-21T03:38:01;11.87;;;11.83;;
24787;SDS011;12883;52.662;5.196;2023-11-21T03:40:27;11.90;;;11.80;;
24787;SDS011;12883;52.662;5.196;2023-11-21T03:42:52;10.27;;;10.23;;
24787;SDS011;12883;52.662;5.196;2023-11-21T03:45:17;10.17;;;10.17;;
24787;SDS011;12883;52.662;5.196;2023-11-21T03:47:43;10.37;;;10.37;;
24787;SDS011;12883;52.662;5.196;2023-11-21T03:50:09;10.57;;;10.47;;
24787;SDS011;12883;52.662;5.196;2023-11-21T03:52:35;9.63;;;9.63;;
24787;SDS011;12883;52.662;5.196;2023-11-21T03:55:01;9.27;;;9.17;;
24787;SDS011;12883;52.662;5.196;2023-11-21T03:57:27;9.13;;;9.13;;
24787;SDS011;12883;52.662;5.196;2023-11-21T03:59:53;8.03;;;8.03;;
24787;SDS011;12883;52.662;5.196;2023-11-21T04:02:18;8.60;;;8.50;;
24787;SDS011;12883;52.662;5.196;2023-11-21T04:04:44;8.43;;;8.43;;
24787;SDS011;12883;52.662;5.196;2023-11-21T04:07:09;7.40;;;7.40;;
24787;SDS011;12883;52.662;5.196;2023-11-21T04:09:34;7.47;;;7.40;;
24787;SDS011;12883;52.662;5.196;2023-11-21T04:12:01;8.23;;;8.23;;
24787;SDS011;12883;52.662;5.196;2023-11-21T04:14:27;8.27;;;8.17;;
24787;SDS011;12883;52.662;5.196;2023-11-21T04:16:52;8.83;;;8.83;;
24787;SDS011;12883;52.662;5.196;2023-11-21T04:19:18;8.60;;;8.60;;
24787;SDS011;12883;52.662;5.196;2023-11-21T04:21:44;7.67;;;7.67;;
24787;SDS011;12883;52.662;5.196;2023-11-21T04:24:09;7.67;;;7.63;;
24787;SDS011;12883;52.662;5.196;2023-11-21T04:26:35;7.70;;;7.60;;
24787;SDS011;12883;52.662;5.196;2023-11-21T04:29:01;7.47;;;7.47;;
24787;SDS011;12883;52.662;5.196;2023-11-21T04:31:26;6.97;;;6.97;;
24787;SDS011;12883;52.662;5.196;2023-11-21T04:33:51;6.30;;;6.30;;
24787;SDS011;12883;52.662;5.196;2023-11-21T04:36:17;7.33;;;7.33;;
24787;SDS011;12883;52.662;5.196;2023-11-21T04:38:42;6.93;;;6.93;;
24787;SDS011;12883;52.662;5.196;2023-11-21T04:41:08;6.83;;;6.83;;
24787;SDS011;12883;52.662;5.196;2023-11-21T04:43:33;6.77;;;6.77;;
24787;SDS011;12883;52.662;5.196;2023-11-21T04:45:58;7.00;;;6.90;;
24787;SDS011;12883;52.662;5.196;2023-11-21T04:48:24;6.67;;;6.57;;
24787;SDS011;12883;52.662;5.196;2023-11-21T04:50:50;5.93;;;5.93;;
24787;SDS011;12883;52.662;5.196;2023-11-21T04:53:16;5.53;;;5.53;;
24787;SDS011;12883;52.662;5.196;2023-11-21T04:55:41;6.50;;;6.50;;
24787;SDS011;12883;52.662;5.196;2023-11-21T04:58:07;6.57;;;6.50;;
24787;SDS011;12883;52.662;5.196;2023-11-21T05:00:33;6.30;;;6.30;;
24787;SDS011;12883;52.662;5.196;2023-11-21T05:02:59;6.80;;;6.77;;
24787;SDS011;12883;52.662;5.196;2023-11-21T05:05:26;7.20;;;7.10;;
24787;SDS011;12883;52.662;5.196;2023-11-21T05:07:51;7.87;;;7.77;;
24787;SDS011;12883;52.662;5.196;2023-11-21T05:10:18;7.50;;;7.40;;
24787;SDS011;12883;52.662;5.196;2023-11-21T05:12:44;7.40;;;7.30;;
24787;SDS011;12883;52.662;5.196;2023-11-21T05:15:10;8.17;;;8.07;;
24787;SDS011;12883;52.662;5.196;2023-11-21T05:17:39;8.60;;;8.50;;
24787;SDS011;12883;52.662;5.196;2023-11-21T05:20:15;8.17;;;8.07;;
24787;SDS011;12883;52.662;5.196;2023-11-21T05:22:45;8.17;;;8.07;;
24787;SDS011;12883;52.662;5.196;2023-11-21T05:25:11;7.17;;;7.13;;
24787;SDS011;12883;52.662;5.196;2023-11-21T05:27:36;7.27;;;7.20;;
24787;SDS011;12883;52.662;5.196;2023-11-21T05:30:02;7.27;;;7.23;;
24787;SDS011;12883;52.662;5.196;2023-11-21T05:32:30;8.13;;;8.13;;
24787;SDS011;12883;52.662;5.196;2023-11-21T05:34:56;8.10;;;8.00;;
24787;SDS011;12883;52.662;5.196;2023-11-21T05:37:21;7.67;;;7.67;;
24787;SDS011;12883;52.662;5.196;2023-11-21T05:39:48;9.13;;;9.03;;
24787;SDS011;12883;52.662;5.196;2023-11-21T05:42:13;10.37;;;10.27;;
24787;SDS011;12883;52.662;5.196;2023-11-21T05:44:40;9.70;;;9.60;;
24787;SDS011;12883;52.662;5.196;2023-11-21T05:47:06;10.10;;;10.07;;
24787;SDS011;12883;52.662;5.196;2023-11-21T05:49:32;11.33;;;11.23;;
24787;SDS011;12883;52.662;5.196;2023-11-21T05:51:58;10.90;;;10.80;;
24787;SDS011;12883;52.662;5.196;2023-11-21T05:54:23;11.77;;;11.67;;
24787;SDS011;12883;52.662;5.196;2023-11-21T05:56:49;12.43;;;12.33;;
24787;SDS011;12883;52.662;5.196;2023-11-21T05:59:14;11.67;;;11.57;;
24787;SDS011;12883;52.662;5.196;2023-11-21T06:01:40;12.13;;;12.03;;
24787;SDS011;12883;52.662;5.196;2023-11-21T06:04:05;11.97;;;11.87;;
24787;SDS011;12883;52.662;5.196;2023-11-21T06:06:33;12.37;;;12.27;;
24787;SDS011;12883;52.662;5.196;2023-11-21T06:08:58;12.77;;;12.67;;
24787;SDS011;12883;52.662;5.196;2023-11-21T06:11:23;12.53;;;12.43;;
24787;SDS011;12883;52.662;5.196;2023-11-21T06:13:49;12.83;;;12.73;;
24787;SDS011;12883;52.662;5.196;2023-11-21T06:16:15;13.63;;;13.53;;
24787;SDS011;12883;52.662;5.196;2023-11-21T06:18:42;14.13;;;14.03;;
24787;SDS011;12883;52.662;5.196;2023-11-21T06:21:11;14.67;;;14.57;;
24787;SDS011;12883;52.662;5.196;2023-11-21T06:23:38;13.53;;;13.43;;
24787;SDS011;12883;52.662;5.196;2023-11-21T06:26:04;13.90;;;13.80;;
24787;SDS011;12883;52.662;5.196;2023-11-21T06:28:30;15.00;;;14.90;;
24787;SDS011;12883;52.662;5.196;2023-11-21T06:30:56;13.13;;;13.03;;
24787;SDS011;12883;52.662;5.196;2023-11-21T06:33:30;12.70;;;12.60;;
24787;SDS011;12883;52.662;5.196;2023-11-21T06:35:56;13.83;;;13.73;;
24787;SDS011;12883;52.662;5.196;2023-11-21T06:38:21;13.37;;;13.27;;
24787;SDS011;12883;52.662;5.196;2023-11-21T06:40:46;12.47;;;12.37;;
24787;SDS011;12883;52.662;5.196;2023-11-21T06:43:12;11.00;;;10.90;;
24787;SDS011;12883;52.662;5.196;2023-11-21T06:45:39;12.03;;;11.93;;
24787;SDS011;12883;52.662;5.196;2023-11-21T06:48:04;12.70;;;12.60;;
24787;SDS011;12883;52.662;5.196;2023-11-21T06:50:30;11.13;;;11.13;;
24787;SDS011;12883;52.662;5.196;2023-11-21T06:52:56;11.83;;;11.73;;
24787;SDS011;12883;52.662;5.196;2023-11-21T06:55:21;11.13;;;11.03;;
24787;SDS011;12883;52.662;5.196;2023-11-21T06:57:46;11.93;;;11.83;;
24787;SDS011;12883;52.662;5.196;2023-11-21T07:00:12;12.70;;;12.60;;
24787;SDS011;12883;52.662;5.196;2023-11-21T07:02:40;11.70;;;11.60;;
24787;SDS011;12883;52.662;5.196;2023-11-21T07:05:05;12.93;;;12.83;;
24787;SDS011;12883;52.662;5.196;2023-11-21T07:07:31;14.33;;;14.23;;
24787;SDS011;12883;52.662;5.196;2023-11-21T07:09:57;14.83;;;14.73;;
24787;SDS011;12883;52.662;5.196;2023-11-21T07:12:22;14.23;;;14.13;;
24787;SDS011;12883;52.662;5.196;2023-11-21T07:14:50;13.80;;;13.70;;
24787;SDS011;12883;52.662;5.196;2023-11-21T07:17:16;14.27;;;14.17;;
24787;SDS011;12883;52.662;5.196;2023-11-21T07:19:42;15.37;;;15.27;;
24787;SDS011;12883;52.662;5.196;2023-11-21T07:22:07;15.07;;;14.97;;
24787;SDS011;12883;52.662;5.196;2023-11-21T07:24:33;14.87;;;14.77;;
24787;SDS011;12883;52.662;5.196;2023-11-21T07:26:59;14.43;;;14.33;;
24787;SDS011;12883;52.662;5.196;2023-11-21T07:29:24;14.37;;;14.27;;
24787;SDS011;12883;52.662;5.196;2023-11-21T07:31:54;13.70;;;13.60;;
24787;SDS011;12883;52.662;5.196;2023-11-21T07:34:20;13.67;;;13.57;;
24787;SDS011;12883;52.662;5.196;2023-11-21T07:36:46;12.53;;;12.53;;
24787;SDS011;12883;52.662;5.196;2023-11-21T07:39:11;13.23;;;13.13;;
24787;SDS011;12883;52.662;5.196;2023-11-21T07:41:37;13.27;;;13.17;;
24787;SDS011;12883;52.662;5.196;2023-11-21T07:44:04;13.93;;;13.83;;
24787;SDS011;12883;52.662;5.196;2023-11-21T07:46:29;13.40;;;13.30;;
24787;SDS011;12883;52.662;5.196;2023-11-21T07:48:55;13.13;;;13.03;;
24787;SDS011;12883;52.662;5.196;2023-11-21T07:51:20;13.17;;;13.07;;
24787;SDS011;12883;52.662;5.196;2023-11-21T07:53:45;14.20;;;14.10;;
24787;SDS011;12883;52.662;5.196;2023-11-21T07:56:11;14.50;;;14.40;;
24787;SDS011;12883;52.662;5.196;2023-11-21T07:58:38;16.57;;;16.47;;
24787;SDS011;12883;52.662;5.196;2023-11-21T08:01:03;19.23;;;19.13;;
24787;SDS011;12883;52.662;5.196;2023-11-21T08:03:29;19.47;;;19.37;;
24787;SDS011;12883;52.662;5.196;2023-11-21T08:05:59;20.53;;;20.43;;
24787;SDS011;12883;52.662;5.196;2023-11-21T08:08:24;19.90;;;19.80;;
24787;SDS011;12883;52.662;5.196;2023-11-21T08:10:50;21.83;;;21.73;;
24787;SDS011;12883;52.662;5.196;2023-11-21T08:13:22;20.57;;;20.47;;
24787;SDS011;12883;52.662;5.196;2023-11-21T08:15:54;19.73;;;19.63;;
24787;SDS011;12883;52.662;5.196;2023-11-21T08:18:21;19.83;;;19.73;;
24787;SDS011;12883;52.662;5.196;2023-11-21T08:20:47;20.73;;;20.63;;
24787;SDS011;12883;52.662;5.196;2023-11-21T08:23:13;20.33;;;20.23;;
24787;SDS011;12883;52.662;5.196;2023-11-21T08:25:44;19.87;;;19.77;;
24787;SDS011;12883;52.662;5.196;2023-11-21T08:28:10;20.70;;;20.60;;
24787;SDS011;12883;52.662;5.196;2023-11-21T08:30:35;21.47;;;21.27;;
24787;SDS011;12883;52.662;5.196;2023-11-21T08:33:01;21.07;;;20.97;;
24787;SDS011;12883;52.662;5.196;2023-11-21T08:35:28;20.80;;;20.70;;
24787;SDS011;12883;52.662;5.196;2023-11-21T08:37:53;19.87;;;19.77;;
24787;SDS011;12883;52.662;5.196;2023-11-21T08:40:19;21.17;;;21.07;;
24787;SDS011;12883;52.662;5.196;2023-11-21T08:42:46;19.07;;;18.97;;
24787;SDS011;12883;52.662;5.196;2023-11-21T08:45:12;19.57;;;19.47;;
24787;SDS011;12883;52.662;5.196;2023-11-21T08:47:39;19.87;;;19.77;;
24787;SDS011;12883;52.662;5.196;2023-11-21T08:50:07;20.93;;;20.83;;
24787;SDS011;12883;52.662;5.196;2023-11-21T08:52:33;22.00;;;21.80;;
24787;SDS011;12883;52.662;5.196;2023-11-21T08:54:59;22.90;;;22.70;;
24787;SDS011;12883;52.662;5.196;2023-11-21T08:57:28;21.97;;;21.80;;
24787;SDS011;12883;52.662;5.196;2023-11-21T08:59:53;22.87;;;22.77;;
24787;SDS011;12883;52.662;5.196;2023-11-21T09:02:21;24.30;;;24.10;;
24787;SDS011;12883;52.662;5.196;2023-11-21T09:04:48;22.27;;;22.07;;
24787;SDS011;12883;52.662;5.196;2023-11-21T09:07:13;23.00;;;22.80;;
24787;SDS011;12883;52.662;5.196;2023-11-21T09:09:39;24.63;;;24.43;;
24787;SDS011;12883;52.662;5.196;2023-11-21T09:12:04;23.27;;;23.07;;
24787;SDS011;12883;52.662;5.196;2023-11-21T09:14:30;24.90;;;24.70;;
24787;SDS011;12883;52.662;5.196;2023-11-21T09:16:55;25.23;;;25.03;;
24787;SDS011;12883;52.662;5.196;2023-11-21T09:19:21;25.07;;;24.87;;
24787;SDS011;12883;52.662;5.196;2023-11-21T09:21:46;24.63;;;24.43;;
24787;SDS011;12883;52.662;5.196;2023-11-21T09:24:12;24.37;;;24.17;;
24787;SDS011;12883;52.662;5.196;2023-11-21T09:26:37;25.20;;;25.00;;
24787;SDS011;12883;52.662;5.196;2023-11-21T09:29:02;24.93;;;24.73;;
24787;SDS011;12883;52.662;5.196;2023-11-21T09:31:28;24.03;;;23.83;;
24787;SDS011;12883;52.662;5.196;2023-11-21T09:33:53;23.90;;;23.70;;
24787;SDS011;12883;52.662;5.196;2023-11-21T09:36:19;24.30;;;24.10;;
24787;SDS011;12883;52.662;5.196;2023-11-21T09:38:46;26.23;;;26.03;;
24787;SDS011;12883;52.662;5.196;2023-11-21T09:41:17;25.97;;;25.77;;
24787;SDS011;12883;52.662;5.196;2023-11-21T09:43:49;25.27;;;25.07;;
24787;SDS011;12883;52.662;5.196;2023-11-21T09:46:20;27.63;;;27.43;;
24787;SDS011;12883;52.662;5.196;2023-11-21T09:48:50;28.80;;;28.60;;
24787;SDS011;12883;52.662;5.196;2023-11-21T09:51:18;28.83;;;28.63;;
24787;SDS011;12883;52.662;5.196;2023-11-21T09:53:45;26.83;;;26.63;;
24787;SDS011;12883;52.662;5.196;2023-11-21T09:56:14;24.57;;;24.37;;
24787;SDS011;12883;52.662;5.196;2023-11-21T09:58:44;21.63;;;21.53;;
24787;SDS011;12883;52.662;5.196;2023-11-21T10:01:09;18.83;;;18.73;;
24787;SDS011;12883;52.662;5.196;2023-11-21T10:03:36;19.07;;;18.97;;
24787;SDS011;12883;52.662;5.196;2023-11-21T10:06:03;17.00;;;16.90;;
24787;SDS011;12883;52.662;5.196;2023-11-21T10:08:30;14.90;;;14.80;;
24787;SDS011;12883;52.662;5.196;2023-11-21T10:10:57;13.77;;;13.77;;
24787;SDS011;12883;52.662;5.196;2023-11-21T10:13:24;13.23;;;13.23;;
24787;SDS011;12883;52.662;5.196;2023-11-21T10:15:51;14.37;;;14.37;;
24787;SDS011;12883;52.662;5.196;2023-11-21T10:18:18;13.73;;;13.73;;
24787;SDS011;12883;52.662;5.196;2023-11-21T10:20:44;12.67;;;12.67;;
24787;SDS011;12883;52.662;5.196;2023-11-21T10:23:17;13.63;;;13.63;;
24787;SDS011;12883;52.662;5.196;2023-11-21T10:25:44;12.60;;;12.60;;
24787;SDS011;12883;52.662;5.196;2023-11-21T10:28:09;13.17;;;13.17;;
24787;SDS011;12883;52.662;5.196;2023-11-21T10:30:36;12.30;;;12.30;;
24787;SDS011;12883;52.662;5.196;2023-11-21T10:33:03;13.20;;;13.20;;
24787;SDS011;12883;52.662;5.196;2023-11-21T10:38:18;12.33;;;12.33;;
24787;SDS011;12883;52.662;5.196;2023-11-21T10:40:46;13.33;;;13.33;;
24787;SDS011;12883;52.662;5.196;2023-11-21T10:43:13;13.43;;;13.43;;
24787;SDS011;12883;52.662;5.196;2023-11-21T10:45:40;11.97;;;11.97;;
24787;SDS011;12883;52.662;5.196;2023-11-21T10:48:07;11.80;;;11.80;;
24787;SDS011;12883;52.662;5.196;2023-11-21T10:50:34;11.00;;;11.00;;
24787;SDS011;12883;52.662;5.196;2023-11-21T10:53:01;11.83;;;11.83;;
24787;SDS011;12883;52.662;5.196;2023-11-21T10:55:28;10.83;;;10.83;;
24787;SDS011;12883;52.662;5.196;2023-11-21T10:57:56;11.27;;;11.27;;
24787;SDS011;12883;52.662;5.196;2023-11-21T11:00:24;12.20;;;12.20;;
24787;SDS011;12883;52.662;5.196;2023-11-21T11:02:53;11.67;;;11.67;;
24787;SDS011;12883;52.662;5.196;2023-11-21T11:05:22;10.93;;;10.93;;
24787;SDS011;12883;52.662;5.196;2023-11-21T11:07:50;12.53;;;12.53;;
24787;SDS011;12883;52.662;5.196;2023-11-21T11:10:22;12.00;;;12.00;;
24787;SDS011;12883;52.662;5.196;2023-11-21T11:12:51;11.70;;;11.70;;
24787;SDS011;12883;52.662;5.196;2023-11-21T11:15:17;11.97;;;11.97;;
24787;SDS011;12883;52.662;5.196;2023-11-21T11:17:45;12.50;;;12.50;;
24787;SDS011;12883;52.662;5.196;2023-11-21T11:20:12;13.63;;;13.63;;
24787;SDS011;12883;52.662;5.196;2023-11-21T11:25:38;14.10;;;14.10;;
24787;SDS011;12883;52.662;5.196;2023-11-21T11:28:11;14.63;;;14.63;;
24787;SDS011;12883;52.662;5.196;2023-11-21T11:33:39;15.77;;;15.77;;
24787;SDS011;12883;52.662;5.196;2023-11-21T11:38:52;15.50;;;15.50;;
24787;SDS011;12883;52.662;5.196;2023-11-21T11:41:25;15.70;;;15.70;;
24787;SDS011;12883;52.662;5.196;2023-11-21T11:43:52;15.83;;;15.80;;
24787;SDS011;12883;52.662;5.196;2023-11-21T11:46:18;15.00;;;15.00;;
24787;SDS011;12883;52.662;5.196;2023-11-21T11:48:46;15.03;;;15.00;;
24787;SDS011;12883;52.662;5.196;2023-11-21T11:51:14;16.00;;;16.00;;
24787;SDS011;12883;52.662;5.196;2023-11-21T11:53:42;13.80;;;13.80;;
24787;SDS011;12883;52.662;5.196;2023-11-21T11:58:50;12.63;;;12.63;;
24787;SDS011;12883;52.662;5.196;2023-11-21T12:01:20;11.73;;;11.73;;
24787;SDS011;12883;52.662;5.196;2023-11-21T12:04:22;10.83;;;10.83;;
24787;SDS011;12883;52.662;5.196;2023-11-21T12:06:45;10.13;;;10.13;;
24787;SDS011;12883;52.662;5.196;2023-11-21T12:09:20;10.53;;;10.53;;
24787;SDS011;12883;52.662;5.196;2023-11-21T12:11:48;9.63;;;9.63;;
24787;SDS011;12883;52.662;5.196;2023-11-21T12:14:14;9.53;;;9.53;;
24787;SDS011;12883;52.662;5.196;2023-11-21T12:16:40;9.27;;;9.27;;
24787;SDS011;12883;52.662;5.196;2023-11-21T12:19:05;9.27;;;9.27;;
24787;SDS011;12883;52.662;5.196;2023-11-21T12:21:31;9.07;;;9.07;;
24787;SDS011;12883;52.662;5.196;2023-11-21T12:23:57;9.17;;;9.17;;
24787;SDS011;12883;52.662;5.196;2023-11-21T12:26:23;9.33;;;9.33;;
24787;SDS011;12883;52.662;5.196;2023-11-21T12:28:52;8.03;;;8.03;;
24787;SDS011;12883;52.662;5.196;2023-11-21T12:31:23;8.27;;;8.27;;
24787;SDS011;12883;52.662;5.196;2023-11-21T12:33:49;7.67;;;7.67;;
24787;SDS011;12883;52.662;5.196;2023-11-21T12:36:15;7.07;;;7.07;;
24787;SDS011;12883;52.662;5.196;2023-11-21T12:38:41;7.73;;;7.73;;
24787;SDS011;12883;52.662;5.196;2023-11-21T12:41:07;8.20;;;8.20;;
24787;SDS011;12883;52.662;5.196;2023-11-21T12:43:33;7.63;;;7.63;;
24787;SDS011;12883;52.662;5.196;2023-11-21T12:46:12;9.33;;;9.33;;
24787;SDS011;12883;52.662;5.196;2023-11-21T12:48:41;9.00;;;9.00;;
24787;SDS011;12883;52.662;5.196;2023-11-21T12:51:10;9.80;;;9.80;;
24787;SDS011;12883;52.662;5.196;2023-11-21T12:53:37;9.63;;;9.63;;
24787;SDS011;12883;52.662;5.196;2023-11-21T12:56:10;10.40;;;10.40;;
24787;SDS011;12883;52.662;5.196;2023-11-21T12:58:37;10.67;;;10.67;;
24787;SDS011;12883;52.662;5.196;2023-11-21T13:01:04;9.97;;;9.97;;
24787;SDS011;12883;52.662;5.196;2023-11-21T13:03:31;9.40;;;9.40;;
24787;SDS011;12883;52.662;5.196;2023-11-21T13:05:57;9.80;;;9.80;;
24787;SDS011;12883;52.662;5.196;2023-11-21T13:08:24;10.07;;;10.07;;
24787;SDS011;12883;52.662;5.196;2023-11-21T13:10:54;10.03;;;10.03;;
24787;SDS011;12883;52.662;5.196;2023-11-21T13:13:21;11.20;;;11.20;;
24787;SDS011;12883;52.662;5.196;2023-11-21T13:15:47;10.13;;;10.13;;
24787;SDS011;12883;52.662;5.196;2023-11-21T13:18:14;9.33;;;9.33;;
24787;SDS011;12883;52.662;5.196;2023-11-21T13:20:40;8.40;;;8.40;;
24787;SDS011;12883;52.662;5.196;2023-11-21T13:23:08;7.97;;;7.97;;
24787;SDS011;12883;52.662;5.196;2023-11-21T13:25:36;8.17;;;8.17;;
24787;SDS011;12883;52.662;5.196;2023-11-21T13:28:10;8.97;;;8.97;;
24787;SDS011;12883;52.662;5.196;2023-11-21T13:30:36;9.17;;;9.17;;
24787;SDS011;12883;52.662;5.196;2023-11-21T13:33:05;9.60;;;9.60;;
24787;SDS011;12883;52.662;5.196;2023-11-21T13:35:33;9.27;;;9.27;;
24787;SDS011;12883;52.662;5.196;2023-11-21T13:38:12;9.70;;;9.70;;
24787;SDS011;12883;52.662;5.196;2023-11-21T13:40:42;9.90;;;9.90;;
24787;SDS011;12883;52.662;5.196;2023-11-21T13:43:18;10.93;;;10.93;;
24787;SDS011;12883;52.662;5.196;2023-11-21T13:45:45;10.83;;;10.83;;
24787;SDS011;12883;52.662;5.196;2023-11-21T13:48:11;11.27;;;11.27;;
24787;SDS011;12883;52.662;5.196;2023-11-21T13:50:57;10.60;;;10.60;;
24787;SDS011;12883;52.662;5.196;2023-11-21T13:53:26;11.67;;;11.67;;
24787;SDS011;12883;52.662;5.196;2023-11-21T13:55:52;10.60;;;10.60;;
24787;SDS011;12883;52.662;5.196;2023-11-21T13:58:25;10.50;;;10.50;;
24787;SDS011;12883;52.662;5.196;2023-11-21T14:01:06;11.57;;;11.57;;
24787;SDS011;12883;52.662;5.196;2023-11-21T14:03:38;10.60;;;10.60;;
24787;SDS011;12883;52.662;5.196;2023-11-21T14:06:10;9.97;;;9.97;;
24787;SDS011;12883;52.662;5.196;2023-11-21T14:08:40;10.07;;;10.07;;
24787;SDS011;12883;52.662;5.196;2023-11-21T14:11:06;10.43;;;10.43;;
24787;SDS011;12883;52.662;5.196;2023-11-21T14:13:32;10.33;;;10.33;;
24787;SDS011;12883;52.662;5.196;2023-11-21T14:15:58;10.13;;;10.13;;
24787;SDS011;12883;52.662;5.196;2023-11-21T14:18:26;9.43;;;9.43;;
24787;SDS011;12883;52.662;5.196;2023-11-21T14:21:15;10.10;;;10.10;;
24787;SDS011;12883;52.662;5.196;2023-11-21T14:23:41;8.93;;;8.93;;
24787;SDS011;12883;52.662;5.196;2023-11-21T14:26:07;9.57;;;9.57;;
24787;SDS011;12883;52.662;5.196;2023-11-21T14:28:32;9.40;;;9.40;;
24787;SDS011;12883;52.662;5.196;2023-11-21T14:31:00;8.50;;;8.50;;
24787;SDS011;12883;52.662;5.196;2023-11-21T14:33:25;8.83;;;8.83;;
24787;SDS011;12883;52.662;5.196;2023-11-21T14:35:50;9.37;;;9.37;;
24787;SDS011;12883;52.662;5.196;2023-11-21T14:38:16;9.57;;;9.57;;
24787;SDS011;12883;52.662;5.196;2023-11-21T14:40:41;8.37;;;8.37;;